• Join FlightAware (Why Join?)
  • Login
  • US Flag 
01:12PM EDT


 

Airport Tracker/Info


-or-


 

Live Flight TrackerFlight Track Log ✈ ASQ5941 ✈ 09-Sep-2013 ✈ KAVP - KORD

Flight Track Log - Related Links

Times and Time Zones

All times are in EDT time to prevent confusion due to time zone crossing. See the ASQ5941 flight status page for this flight to view local times or setup timezone preferences in your user account.

Time Position Orientation Groundspeed Altitude Reporting Facility
EDT Latitude Longitude Course Direction KTS MPH feet Rate Location/Type
05:10PM 41.3833 -76.1514 307° West  Level Estimated
05:11PM 41.3942 -76.2585 307° West  Level Estimated
05:11PM 41.4353 -75.8597 North 285 328 8,000  Level New York Center
05:12PM 41.4690 -76.3005 337° Northwest  Level FlightAware Approximate
05:12PM 41.5033 -75.8261 20° North 293 337 8,800  Level New York Center
05:13PM 41.4791 -76.4078 289° West  Level Estimated
05:13PM 41.5831 -75.7628 31° Northeast 293 337 10,300  Level New York Center
05:14PM 41.4892 -76.5152 291° West  Level Estimated
05:14PM 41.6542 -75.7044 31° Northeast 299 344 12,200  Level New York Center
05:15PM 41.4992 -76.6227 287° West  Level Estimated
05:15PM 41.7317 -75.6433 30° Northeast 308 354 14,300  Level New York Center
05:16PM 41.8008 -75.6819 337° Northwest 255 293 16,000 1,200 Climbing New York Center
05:17PM 41.8211 -75.8003 283° West 250 288 16,800 840 Climbing New York Center
05:18PM 41.8469 -75.9247 286° West 309 356 17,700 780 Climbing New York Center
05:19PM 41.8725 -76.0519 285° West 354 407 18,400 780 Climbing New York Center
05:20PM 41.8983 -76.1711 286° West 365 420 19,300 900 Climbing New York Center
05:21PM 41.9275 -76.3072 286° West 370 426 20,300 960 Climbing New York Center
05:22PM 41.9567 -76.4436 286° West 376 433 21,300 900 Climbing New York Center
05:23PM 41.9811 -76.5825 283° West 381 438 22,200 960 Climbing New York Center
05:24PM 42.0097 -76.7189 286° West 381 438 23,300 1,020 Climbing New York Center
05:26PM 42.0497 -76.9225 285° West 376 433 24,700 960 Climbing Cleveland Center
05:27PM 42.0789 -77.0581 286° West 376 433 25,600 900 Climbing Cleveland Center
05:28PM 42.1061 -77.1964 285° West 376 433 26,600 960 Climbing Cleveland Center
05:29PM 42.1331 -77.3322 285° West 376 433 27,600 660 Climbing Cleveland Center
05:30PM 42.1578 -77.4739 283° West 376 433 28,000 180 Climbing Cleveland Center
05:31PM 42.1867 -77.6183 285° West 387 445 28,000  Level Cleveland Center
05:32PM 42.2153 -77.7711 284° West 405 466 28,000  Level Cleveland Center
05:33PM 42.2461 -77.9214 286° West 412 474 28,000  Level Cleveland Center
05:34PM 42.2744 -78.0717 284° West 412 474 28,000  Level Cleveland Center
05:35PM 42.3028 -78.2222 284° West 412 474 28,000  Level Cleveland Center
05:36PM 42.3261 -78.3561 283° West 412 474 28,000  Level Cleveland Center
05:37PM 42.3539 -78.5067 284° West 412 474 28,000  Level Cleveland Center
05:38PM 42.3817 -78.6606 284° West 417 480 28,000  Level Cleveland Center
05:39PM 42.4111 -78.8114 285° West 417 480 28,000  Level Cleveland Center
05:40PM 42.4386 -78.9850 282° West 426 490 28,000  Level Cleveland Center
05:41PM 42.4633 -79.1197 284° West 426 490 28,000  Level Cleveland Center
05:42PM 42.4925 -79.2767 284° West 426 490 28,000  Level Cleveland Center
05:43PM 42.5003 -79.4342 274° West 426 490 28,000  Level Cleveland Center
05:44PM 42.5081 -79.5917 274° West 426 490 28,000  Level Cleveland Center
05:45PM 42.5156 -79.7578 274° West 426 490 28,000  Level Cleveland Center
05:46PM 42.5250 -79.9156 275° West 426 490 28,000  Level Cleveland Center
05:47PM 42.5278 -80.0817 271° West 431 496 28,000  Level Cleveland Center
05:48PM 42.5347 -80.2564 273° West 431 496 28,000  Level Cleveland Center
05:49PM 42.5414 -80.4225 273° West 436 502 28,000  Level Cleveland Center
05:50PM 42.5497 -80.5831 274° West 436 502 28,000  Level Cleveland Center
05:51PM 42.5558 -80.7439 273° West 436 502 28,000  Level Cleveland Center
05:52PM 42.5619 -80.9044 273° West 436 502 28,000  Level Cleveland Center
05:53PM 42.5656 -81.0597 272° West 421 484 28,000  Level Cleveland Center
05:54PM 42.5731 -81.2147 274° West 421 484 28,000  Level Cleveland Center
05:55PM 42.5764 -81.3756 272° West 421 484 28,000  Level Cleveland Center
05:56PM 42.5961 -81.5222 280° West 421 484 28,000  Level Cleveland Center
05:57PM 42.6239 -81.6753 284° West 409 471 28,000  Level Cleveland Center
05:58PM 42.6472 -81.8222 282° West 403 464 28,000  Level Cleveland Center
05:59PM 42.6728 -81.9697 283° West 403 464 28,000  Level Cleveland Center
06:00PM 42.6981 -82.1200 283° West 403 464 28,000  Level Cleveland Center
06:01PM 42.7250 -82.2675 284° West 409 471 28,000  Level Cleveland Center
06:02PM 42.7436 -82.4208 279° West 414 476 28,000  Level Cleveland Center
06:03PM 42.7539 -82.5569 276° West 414 476 28,000  Level Cleveland Center
06:04PM 42.7636 -82.7100 275° West 414 476 28,000  Level Cleveland Center
06:05PM 42.7753 -82.8631 276° West 408 470 28,000  Level Cleveland Center
06:06PM 42.7867 -83.0161 276° West 408 470 28,000  Level Cleveland Center
06:07PM 42.7958 -83.1750 275° West 413 475 28,000  Level Cleveland Center
06:08PM 42.8089 -83.3314 277° West 418 481 28,000  Level Cleveland Center
06:09PM 42.8175 -83.4875 274° West 418 481 28,000  Level Cleveland Center
06:10PM 42.8300 -83.6494 276° West 424 488 28,000  Level Cleveland Center
06:11PM 42.8403 -83.8083 275° West 424 488 28,000  Level Cleveland Center
06:12PM 42.8461 -83.9703 273° West 424 488 28,000  Level Cleveland Center
06:13PM 42.8558 -84.1322 275° West 424 488 28,000  Level Cleveland Center
06:14PM 42.8672 -84.2944 276° West 424 488 28,000  Level Cleveland Center
06:14PM 42.8739 -84.3947 275° West 428 493 28,000  Level Chicago Center
06:15PM 42.8836 -84.5569 275° West 429 494 28,000  Level Chicago Center
06:16PM 42.8697 -84.7186 263° West 430 495 28,000  Level Chicago Center
06:17PM 42.8528 -84.8819 262° West 436 502 28,000  Level Chicago Center
06:18PM 42.8322 -85.0769 262° West 434 499 28,000  Level Chicago Center
06:19PM 42.8144 -85.2417 262° West 438 504 28,000  Level Chicago Center
06:20PM 42.7961 -85.4042 261° West 436 502 28,000  Level Chicago Center
06:21PM 42.7739 -85.5681 260° West 436 502 28,000 -300 Level Chicago Center
06:22PM 42.7422 -85.7497 257° West 441 507 27,500 -1,260 Descending Chicago Center
06:23PM 42.7150 -85.8958 256° West 444 511 25,500 -2,100 Descending Chicago Center
06:24PM 42.6853 -86.0567 256° West 438 504 23,200 -2,520 Descending Chicago Center
06:26PM 42.6514 -86.2431 256° West 424 488 20,400 -1,800 Descending Chicago Center
06:27PM 42.6247 -86.3881 256° West 402 463 19,600 -1,380 Descending Chicago Center
06:28PM 42.5981 -86.5300 256° West 390 449 17,600 -2,040 Descending Chicago Center
06:29PM 42.5717 -86.6708 256° West 387 445 15,400 -1,980 Descending Chicago Center
06:30PM 42.5408 -86.8019 252° West 369 425 13,600 -1,740 Descending Chicago Center
06:31PM 42.5050 -86.9286 249° West 364 419 11,900 -1,740 Descending Chicago Center
06:32PM 42.4639 -87.0814 250° West 360 414 10,100 -960 Descending Chicago Center
06:33PM 42.4317 -87.2000 250° West 344 396 10,000 -540 Descending Chicago Center
06:34PM 42.4042 -87.2961 249° West 285 328 9,100 -540 Descending Chicago Center
06:35PM 42.3800 -87.3892 251° West 264 304 9,000 -660 Descending Chicago Center
06:36PM 42.3583 -87.4669 249° West 233 268 7,800 -1,020 Descending Chicago Center
06:37PM 42.3239 -87.5531 242° Southwest 225 259 7,000 -720 Descending Chicago Center
06:38PM 42.2739 -87.6031 217° Southwest 224 258 6,400 -960 Descending Chicago Center
06:39PM 42.2236 -87.6519 216° Southwest 223 257 5,100 -780 Descending Chicago Center
06:40PM 42.1756 -87.6983 216° Southwest 218 251 4,900 -540 Descending Chicago Center
06:41PM 42.1383 -87.7433 222° Southwest 199 229 4,100 -960 Descending Chicago Center
06:42PM 42.0953 -87.7906 219° Southwest 180 207 3,000 -960 Descending Chicago Center
06:43PM 42.0603 -87.8283 219° Southwest 170 196 2,200 -780 Descending Chicago Center
06:44PM 42.0308 -87.8608 219° Southwest 155 178 1,500 -720 Descending Chicago Center
06:45PM 42.0000 -87.9000 223° Southwest 134 154 800 -720 Descending Chicago TRACON